createdAt,value
2023-03-27T00:01:22.213Z,100.00
2023-03-27T00:05:24.556Z,100.00
2023-03-27T00:09:28.528Z,100.00
2023-03-27T00:13:32.123Z,100.00
2023-03-27T00:17:34.420Z,100.00
2023-03-27T00:21:36.575Z,100.00
2023-03-27T00:25:39.220Z,100.00
2023-03-27T00:29:41.375Z,100.00
2023-03-27T00:33:43.817Z,100.00
2023-03-27T00:37:46.706Z,100.00
2023-03-27T00:41:49.102Z,100.00
2023-03-27T00:45:55.431Z,100.00
2023-03-27T00:49:59.534Z,100.00
2023-03-27T00:54:01.969Z,100.00
2023-03-27T00:58:10.336Z,100.00
2023-03-27T01:02:13.499Z,100.00
2023-03-27T01:06:19.547Z,100.00
2023-03-27T01:10:49.051Z,100.00
2023-03-27T01:14:57.841Z,100.00
2023-03-27T01:18:59.891Z,100.00
2023-03-27T01:23:35.743Z,100.00
2023-03-27T01:28:02.938Z,100.00
2023-03-27T01:32:24.634Z,100.00
2023-03-27T01:36:34.867Z,100.00
2023-03-27T01:41:00.832Z,100.00
2023-03-27T01:45:08.562Z,100.00
2023-03-27T01:49:16.411Z,100.00
2023-03-27T01:53:25.521Z,100.00
2023-03-27T01:57:49.167Z,100.00
2023-03-27T02:01:59.323Z,100.00
2023-03-27T02:06:29.332Z,100.00
2023-03-27T02:10:37.377Z,100.00
2023-03-27T02:15:29.231Z,100.00
2023-03-27T02:19:41.082Z,100.00
2023-03-27T02:23:43.729Z,100.00
2023-03-27T02:27:51.953Z,100.00
2023-03-27T02:32:27.752Z,100.00
2023-03-27T02:37:02.228Z,100.00
2023-03-27T02:41:36.441Z,100.00
2023-03-27T02:46:03.421Z,100.00
2023-03-27T02:50:12.018Z,100.00
2023-03-27T02:54:24.888Z,100.00
2023-03-27T02:58:38.328Z,100.00
2023-03-27T03:02:48.624Z,100.00
2023-03-27T03:06:51.646Z,100.00
2023-03-27T03:11:01.632Z,100.00
2023-03-27T03:15:04.968Z,100.00
2023-03-27T03:19:07.530Z,100.00
2023-03-27T03:23:10.024Z,100.00
2023-03-27T03:27:14.513Z,100.00
2023-03-27T03:31:44.613Z,100.00
2023-03-27T03:35:49.347Z,100.00
2023-03-27T03:40:11.983Z,100.00
2023-03-27T03:44:18.369Z,100.00
2023-03-27T03:48:22.235Z,100.00
2023-03-27T03:52:24.741Z,100.00
2023-03-27T03:56:29.548Z,100.00
2023-03-27T04:00:34.611Z,100.00
2023-03-27T04:04:38.890Z,100.00
2023-03-27T04:08:45.816Z,100.00
2023-03-27T04:13:09.327Z,100.00
2023-03-27T04:17:15.814Z,100.00
2023-03-27T04:21:18.221Z,100.00
2023-03-27T04:25:24.227Z,100.00
2023-03-27T04:29:30.389Z,100.00
2023-03-27T04:33:46.531Z,100.00
2023-03-27T04:38:20.810Z,100.00
2023-03-27T04:42:27.787Z,100.00
2023-03-27T04:46:30.045Z,100.00
2023-03-27T04:50:37.861Z,100.00
2023-03-27T04:54:41.566Z,100.00
2023-03-27T04:58:45.821Z,100.00
2023-03-27T05:02:56.129Z,100.00
2023-03-27T05:07:10.398Z,100.00
2023-03-27T05:11:13.159Z,100.00
2023-03-27T05:15:57.438Z,100.00
2023-03-27T05:20:01.977Z,100.00
2023-03-27T05:24:08.114Z,100.00
2023-03-27T05:28:10.698Z,100.00
2023-03-27T05:32:12.906Z,100.00
2023-03-27T05:36:19.505Z,100.00
2023-03-27T05:40:27.747Z,100.00
2023-03-27T05:44:30.053Z,100.00
2023-03-27T05:48:32.384Z,100.00
2023-03-27T05:52:37.710Z,100.00
2023-03-27T05:56:39.988Z,100.00
2023-03-27T06:00:43.148Z,100.00
2023-03-27T06:04:52.301Z,100.00
2023-03-27T06:09:07.835Z,100.00
2023-03-27T06:13:13.463Z,100.00
2023-03-27T06:17:26.664Z,100.00
2023-03-27T06:21:36.790Z,100.00
2023-03-27T06:25:39.496Z,100.00
2023-03-27T06:29:42.886Z,100.00
2023-03-27T06:33:47.204Z,100.00
2023-03-27T06:38:07.136Z,100.00
2023-03-27T06:42:10.631Z,100.00
2023-03-27T06:46:32.252Z,100.00
2023-03-27T06:51:07.631Z,100.00
2023-03-27T06:55:14.993Z,100.00
2023-03-27T06:59:25.392Z,100.00
2023-03-27T07:03:33.010Z,100.00
2023-03-27T07:07:35.371Z,100.00
2023-03-27T07:11:37.907Z,100.00
2023-03-27T07:15:43.713Z,100.00
2023-03-27T07:19:46.320Z,100.00
2023-03-27T07:23:49.851Z,100.00
2023-03-27T07:28:12.533Z,100.00
2023-03-27T07:32:22.332Z,100.00
2023-03-27T07:36:34.192Z,100.00
2023-03-27T07:40:43.443Z,100.00
2023-03-27T07:45:14.599Z,100.00
2023-03-27T07:49:16.841Z,100.00
2023-03-27T07:53:33.050Z,100.00
2023-03-27T07:57:59.891Z,100.00
2023-03-27T08:02:05.619Z,100.00
2023-03-27T08:06:11.939Z,100.00
2023-03-27T08:10:16.096Z,100.00
2023-03-27T08:14:33.793Z,100.00
2023-03-27T08:18:49.896Z,100.00
2023-03-27T08:22:55.562Z,100.00
2023-03-27T08:27:20.536Z,100.00
2023-03-27T08:31:23.181Z,100.00
2023-03-27T08:35:25.449Z,100.00
2023-03-27T08:39:30.761Z,100.00
2023-03-27T08:43:44.265Z,100.00
2023-03-27T08:47:54.694Z,100.00
2023-03-27T08:52:04.120Z,100.00
2023-03-27T08:56:15.026Z,100.00
2023-03-27T09:00:25.511Z,100.00
2023-03-27T09:04:53.715Z,100.00
2023-03-27T09:09:10.060Z,100.00
2023-03-27T09:13:18.254Z,100.00
2023-03-27T09:17:27.282Z,100.00
2023-03-27T09:21:42.338Z,100.00
2023-03-27T09:25:57.311Z,100.00
2023-03-27T09:30:29.383Z,100.00
2023-03-27T09:34:41.076Z,100.00
2023-03-27T09:38:50.864Z,100.00
2023-03-27T09:43:16.547Z,88.82
2023-03-27T09:47:57.073Z,85.70
2023-03-27T09:52:03.985Z,89.26
2023-03-27T09:56:15.079Z,88.44
2023-03-27T10:00:29.264Z,73.55
2023-03-27T10:04:32.151Z,72.68
2023-03-27T10:08:42.956Z,70.90
2023-03-27T10:13:04.400Z,71.01
2023-03-27T10:17:26.257Z,70.04
2023-03-27T10:21:43.941Z,62.29
2023-03-27T10:25:59.767Z,65.26
2023-03-27T10:30:28.022Z,59.63
2023-03-27T10:34:43.494Z,56.06
2023-03-27T10:39:11.818Z,57.09
2023-03-27T10:43:41.449Z,55.51
2023-03-27T10:47:49.309Z,54.45
2023-03-27T10:52:05.682Z,52.00
2023-03-27T10:56:30.461Z,52.63
2023-03-27T11:00:35.627Z,55.86
2023-03-27T11:04:55.623Z,52.80
2023-03-27T11:09:31.387Z,47.55
2023-03-27T11:13:48.040Z,51.54
2023-03-27T11:18:16.197Z,49.82
2023-03-27T11:22:32.341Z,46.82
2023-03-27T11:26:52.890Z,42.13
2023-03-27T11:31:11.912Z,42.58
2023-03-27T11:35:25.223Z,48.07
2023-03-27T11:39:46.916Z,47.93
2023-03-27T11:43:49.280Z,48.65
2023-03-27T11:48:40.990Z,47.60
2023-03-27T11:53:24.414Z,45.10
2023-03-27T11:57:53.938Z,43.54
2023-03-27T12:02:09.114Z,43.00
2023-03-27T12:06:36.281Z,41.27
2023-03-27T12:10:42.467Z,44.97
2023-03-27T12:14:52.889Z,41.53
2023-03-27T12:19:27.636Z,42.69
2023-03-27T12:24:16.201Z,39.44
2023-03-27T12:28:50.728Z,40.08
2023-03-27T12:33:44.995Z,39.00
2023-03-27T12:38:06.490Z,41.20
2023-03-27T12:42:15.497Z,38.80
2023-03-27T12:46:23.805Z,39.37
2023-03-27T12:50:32.217Z,38.77
2023-03-27T12:54:39.074Z,39.11
2023-03-27T12:58:59.870Z,36.96
2023-03-27T13:03:30.644Z,36.67
2023-03-27T13:08:00.811Z,36.48
2023-03-27T13:12:45.281Z,38.23
2023-03-27T13:16:57.752Z,40.35
2023-03-27T13:21:21.776Z,40.82
2023-03-27T13:25:56.880Z,39.77
2023-03-27T13:30:07.562Z,42.37
2023-03-27T13:34:34.653Z,41.19
2023-03-27T13:38:53.040Z,41.08
2023-03-27T13:43:06.947Z,43.49
2023-03-27T13:47:36.636Z,44.88
2023-03-27T13:51:50.396Z,48.81
2023-03-27T13:56:13.098Z,42.31
2023-03-27T14:01:17.166Z,45.67
2023-03-27T14:05:50.242Z,50.19
2023-03-27T14:10:09.597Z,52.03
2023-03-27T14:14:41.956Z,52.76
2023-03-27T14:19:00.879Z,51.91
2023-03-27T14:23:15.175Z,50.52
2023-03-27T14:27:36.622Z,50.68
2023-03-27T14:31:44.452Z,50.37
2023-03-27T14:36:16.985Z,53.06
2023-03-27T14:40:26.266Z,58.48
2023-03-27T14:44:32.763Z,57.23
2023-03-27T14:48:42.580Z,57.36
2023-03-27T14:52:50.503Z,56.07
2023-03-27T14:57:00.157Z,56.16
2023-03-27T15:01:08.452Z,54.68
2023-03-27T15:05:14.910Z,51.66
2023-03-27T15:09:23.354Z,49.00
2023-03-27T15:14:05.430Z,49.80
2023-03-27T15:18:24.866Z,47.59
2023-03-27T15:22:34.568Z,46.10
2023-03-27T15:26:37.157Z,45.26
2023-03-27T15:30:45.757Z,60.73
2023-03-27T15:34:58.037Z,54.65
2023-03-27T15:39:02.698Z,57.93
2023-03-27T15:43:13.924Z,51.23
2023-03-27T15:47:27.188Z,54.47
2023-03-27T15:51:30.751Z,54.60
2023-03-27T15:55:48.023Z,54.99
2023-03-27T15:59:50.902Z,54.48
2023-03-27T16:04:00.606Z,54.52
2023-03-27T16:08:04.904Z,59.06
2023-03-27T16:12:10.404Z,59.49
2023-03-27T16:16:33.346Z,58.41
2023-03-27T16:20:39.454Z,58.18
2023-03-27T16:24:41.586Z,58.60
2023-03-27T16:28:44.201Z,59.01
2023-03-27T16:32:46.416Z,53.81
2023-03-27T16:36:48.642Z,52.29
2023-03-27T16:40:51.170Z,51.13
2023-03-27T16:44:53.809Z,50.30
2023-03-27T16:48:59.089Z,49.86
2023-03-27T16:53:01.366Z,49.76
2023-03-27T16:57:03.639Z,49.34
2023-03-27T17:01:07.143Z,48.72
2023-03-27T17:05:09.902Z,48.34
2023-03-27T17:09:12.763Z,47.03
2023-03-27T17:13:14.920Z,47.12
2023-03-27T17:17:17.755Z,48.92
2023-03-27T17:21:19.914Z,49.28
2023-03-27T17:25:22.155Z,49.25
2023-03-27T17:29:24.300Z,49.51
2023-03-27T17:33:27.920Z,50.11
2023-03-27T17:37:30.959Z,49.97
2023-03-27T17:41:33.305Z,49.83
2023-03-27T17:45:35.766Z,50.38
2023-03-27T17:49:38.459Z,51.65
2023-03-27T17:53:40.718Z,49.49
2023-03-27T17:57:49.026Z,47.31
2023-03-27T18:01:53.676Z,48.25
2023-03-27T18:05:56.136Z,48.01
2023-03-27T18:09:58.384Z,48.30
2023-03-27T18:14:00.543Z,48.87
2023-03-27T18:18:03.612Z,49.27
2023-03-27T18:22:06.092Z,49.66
2023-03-27T18:26:08.986Z,49.84
2023-03-27T18:30:14.706Z,50.64
2023-03-27T18:34:17.208Z,51.05
2023-03-27T18:38:19.397Z,51.11
2023-03-27T18:42:21.550Z,51.25
2023-03-27T18:46:23.752Z,51.15
2023-03-27T18:50:26.136Z,52.34
2023-03-27T18:54:28.791Z,53.83
2023-03-27T18:58:31.451Z,54.48
2023-03-27T19:02:36.473Z,54.42
2023-03-27T19:06:39.074Z,54.61
2023-03-27T19:10:41.294Z,54.14
2023-03-27T19:14:54.044Z,53.85
2023-03-27T19:19:14.978Z,54.93
2023-03-27T19:23:29.114Z,55.42
2023-03-27T19:27:38.630Z,57.08
2023-03-27T19:31:41.943Z,59.44
2023-03-27T19:35:44.293Z,60.67
2023-03-27T19:39:48.290Z,65.10
2023-03-27T19:43:50.513Z,68.53
2023-03-27T19:47:52.874Z,67.07
2023-03-27T19:51:55.215Z,69.90
2023-03-27T19:55:59.022Z,71.85
2023-03-27T20:00:02.066Z,73.42
2023-03-27T20:04:04.850Z,73.98
2023-03-27T20:08:07.248Z,74.53
2023-03-27T20:12:11.427Z,76.00
2023-03-27T20:16:15.100Z,78.67
2023-03-27T20:20:20.734Z,78.39
2023-03-27T20:24:22.805Z,79.11
2023-03-27T20:28:31.263Z,77.62
2023-03-27T20:32:33.458Z,74.29
2023-03-27T20:36:36.081Z,86.36
2023-03-27T20:40:54.397Z,83.05
2023-03-27T20:45:01.761Z,82.10
2023-03-27T20:49:03.938Z,81.28
2023-03-27T20:53:06.046Z,77.92
2023-03-27T20:57:08.886Z,76.23
2023-03-27T21:01:11.472Z,76.25
2023-03-27T21:05:13.635Z,82.28
2023-03-27T21:09:16.044Z,84.36
2023-03-27T21:13:18.170Z,82.33
2023-03-27T21:17:20.803Z,82.70
2023-03-27T21:21:23.562Z,82.38
2023-03-27T21:25:25.956Z,77.25
2023-03-27T21:29:34.864Z,72.18
2023-03-27T21:33:39.829Z,76.22
2023-03-27T21:37:44.067Z,80.16
2023-03-27T21:41:46.867Z,82.85
2023-03-27T21:45:50.419Z,85.14
2023-03-27T21:49:52.715Z,85.87
2023-03-27T21:53:54.850Z,88.47
2023-03-27T21:57:57.069Z,92.05
2023-03-27T22:01:59.151Z,92.96
2023-03-27T22:10:13.431Z,94.32
2023-03-27T22:14:16.389Z,93.55
2023-03-27T22:18:18.917Z,93.76
2023-03-27T22:22:21.188Z,94.06
2023-03-27T22:26:32.277Z,95.91
2023-03-27T22:30:34.388Z,98.03
2023-03-27T22:34:36.512Z,97.51
2023-03-27T22:38:39.734Z,97.81
2023-03-27T22:42:41.962Z,97.25
2023-03-27T22:46:44.117Z,98.89
2023-03-27T22:50:56.119Z,100.00
2023-03-27T22:54:58.200Z,98.91
2023-03-27T22:59:00.369Z,100.00
2023-03-27T23:03:02.498Z,100.00
2023-03-27T23:07:04.612Z,100.00
2023-03-27T23:11:07.091Z,100.00
2023-03-27T23:15:09.694Z,100.00
2023-03-27T23:19:11.856Z,100.00
2023-03-27T23:23:13.931Z,100.00
2023-03-27T23:27:16.102Z,100.00
2023-03-27T23:31:20.280Z,100.00
2023-03-27T23:35:22.494Z,100.00
2023-03-27T23:39:24.612Z,100.00
2023-03-27T23:43:28.666Z,100.00
2023-03-27T23:47:30.982Z,100.00
2023-03-27T23:51:33.237Z,100.00
2023-03-27T23:55:35.448Z,100.00
2023-03-27T23:59:38.230Z,100.00
